This is the latest recevied weather packets stored in our database for station/object OE3TEC-15. If no packets are shown the sender has not sent any weather packets the latest 10 day(s).
| Time | Temp. | Humidity | Pressure | Rain* | Wind** | Luminosity | Snow |
|---|---|---|---|---|---|---|---|
| 1777713010 | 21.67° C | 35% | 1025.7 hPa | 0 mm | - | 614 W/m² | - |
| 1777711795 | 21.11° C | 38% | 1025.8 hPa | 0 mm | - | 587 W/m² | - |
| 1777711188 | 20.56° C | 40% | 1025.8 hPa | 0 mm | - | 570 W/m² | - |
| 1777710580 | 19.44° C | 40% | 1026 hPa | 0 mm | - | 556 W/m² | - |
| 1777709973 | 19.44° C | 41% | 1026 hPa | 0 mm | - | 537 W/m² | - |
| 1777709365 | 19.44° C | 41% | 1026.1 hPa | 0 mm | - | 516 W/m² | - |
| 1777708758 | 19.44° C | 41% | 1026.1 hPa | 0 mm | - | 495 W/m² | - |
| 1777708152 | 18.89° C | 42% | 1026.1 hPa | 0 mm | - | 473 W/m² | - |
| 1777707545 | 17.78° C | 45% | 1026.2 hPa | 0 mm | - | 450 W/m² | - |
| 1777706937 | 17.78° C | 45% | 1026.2 hPa | 0 mm | - | 423 W/m² | - |
| 1777706330 | 17.22° C | 45% | 1026.3 hPa | 0 mm | - | 401 W/m² | - |
| 1777705723 | 17.22° C | 47% | 1026.4 hPa | 0 mm | - | 374 W/m² | - |
| 1777705115 | 16.67° C | 47% | 1026.4 hPa | 0 mm | - | 347 W/m² | - |
| 1777704508 | 15.56° C | 48% | 1026.6 hPa | 0 mm | - | 321 W/m² | - |
| 1777703901 | 15.56° C | 53% | 1026.6 hPa | 0 mm | - | 294 W/m² | - |
| 1777703293 | 15.56° C | 52% | 1026.6 hPa | 0 mm | - | 268 W/m² | - |
| 1777702686 | 15° C | 55% | 1026.8 hPa | 0 mm | - | 243 W/m² | - |
| 1777702080 | 13.33° C | 58% | 1026.7 hPa | 0 mm | - | 217 W/m² | - |
| 1777701473 | 13.33° C | 58% | 1026.8 hPa | 0 mm | - | 194 W/m² | - |
| 1777700865 | 12.78° C | 61% | 1026.7 hPa | 0 mm | - | 170 W/m² | - |
| 1777700258 | 12.22° C | 61% | 1026.9 hPa | 0 mm | - | 148 W/m² | - |
| 1777699651 | 11.11° C | 66% | 1026.8 hPa | 0 mm | - | 128 W/m² | - |
| 1777699043 | 8.33° C | 74% | 1026.7 hPa | 0 mm | - | 107 W/m² | - |
| 1777698436 | 7.22° C | 75% | 1027 hPa | 0 mm | - | 88 W/m² | - |
| 1777697828 | 7.22° C | 74% | 1026.7 hPa | 0 mm | - | 71 W/m² | - |
* Rain latest hour (hover to see other rain measurements)
** Current wind speed in m/s (hover to see current wind gust speed)